createdAt,value
2019-05-01T00:01:25.547Z,4.72
2019-05-01T00:04:09.710Z,4.60
2019-05-01T00:06:37.464Z,4.73
2019-05-01T00:09:05.747Z,4.31
2019-05-01T00:11:31.678Z,4.38
2019-05-01T00:13:57.622Z,4.27
2019-05-01T00:16:23.455Z,4.20
2019-05-01T00:18:49.422Z,3.89
2019-05-01T00:21:15.767Z,3.90
2019-05-01T00:23:41.624Z,4.19
2019-05-01T00:26:07.562Z,4.39
2019-05-01T00:28:33.517Z,4.61
2019-05-01T00:30:59.467Z,4.31
2019-05-01T00:33:25.314Z,4.37
2019-05-01T00:35:51.258Z,4.00
2019-05-01T00:38:17.102Z,4.18
2019-05-01T00:40:43.165Z,4.09
2019-05-01T00:43:09.102Z,4.48
2019-05-01T00:45:35.036Z,4.12
2019-05-01T00:48:00.977Z,4.00
2019-05-01T00:50:26.854Z,3.58
2019-05-01T00:52:52.881Z,3.91
2019-05-01T00:55:38.575Z,4.16
2019-05-01T00:58:09.069Z,4.22
2019-05-01T01:00:43.480Z,3.64
2019-05-01T01:03:09.342Z,3.64
2019-05-01T01:05:35.371Z,3.73
2019-05-01T01:08:01.232Z,3.68
2019-05-01T01:10:27.180Z,3.68
2019-05-01T01:12:53.120Z,3.74
2019-05-01T01:15:19.054Z,3.95
2019-05-01T01:17:45.022Z,4.04
2019-05-01T01:20:11.254Z,4.10
2019-05-01T01:22:37.210Z,3.96
2019-05-01T01:25:05.160Z,3.96
2019-05-01T01:27:31.083Z,3.82
2019-05-01T01:29:56.934Z,4.02
2019-05-01T01:32:22.961Z,3.73
2019-05-01T01:34:48.917Z,3.80
2019-05-01T01:37:14.778Z,3.44
2019-05-01T01:39:40.823Z,3.56
2019-05-01T01:42:07.570Z,3.44
2019-05-01T01:44:38.280Z,3.51
2019-05-01T01:47:04.340Z,3.64
2019-05-01T01:49:30.479Z,3.62
2019-05-01T01:51:56.437Z,3.67
2019-05-01T01:54:22.350Z,3.64
2019-05-01T01:56:48.809Z,3.67
2019-05-01T01:59:14.962Z,3.63
2019-05-01T02:01:51.611Z,3.69
2019-05-01T02:04:19.543Z,3.43
2019-05-01T02:06:46.924Z,3.68
2019-05-01T02:09:12.961Z,3.54
2019-05-01T02:11:39.101Z,3.56
2019-05-01T02:14:05.031Z,3.53
2019-05-01T02:16:30.966Z,3.41
2019-05-01T02:18:57.022Z,3.32
2019-05-01T02:21:22.947Z,3.41
2019-05-01T02:23:48.879Z,3.24
2019-05-01T02:26:17.431Z,3.54
2019-05-01T02:28:45.266Z,3.50
2019-05-01T02:31:28.465Z,2.94
2019-05-01T02:33:46.908Z,2.90
2019-05-01T02:36:14.040Z,3.13
2019-05-01T02:38:40.072Z,2.87
2019-05-01T02:41:07.622Z,3.18
2019-05-01T02:43:34.664Z,3.17
2019-05-01T02:46:01.495Z,2.96
2019-05-01T02:48:29.452Z,3.04
2019-05-01T02:50:57.718Z,3.12
2019-05-01T02:53:23.770Z,2.63
2019-05-01T02:56:10.620Z,2.36
2019-05-01T02:58:37.853Z,2.82
2019-05-01T03:01:03.799Z,2.80
2019-05-01T03:03:29.843Z,2.50
2019-05-01T03:05:55.892Z,2.82
2019-05-01T03:08:21.850Z,2.29
2019-05-01T03:10:47.785Z,2.71
2019-05-01T03:13:13.744Z,2.67
2019-05-01T03:15:39.658Z,2.87
2019-05-01T03:18:13.415Z,2.75
2019-05-01T03:20:44.134Z,2.46
2019-05-01T03:23:20.852Z,2.58
2019-05-01T03:25:47.083Z,2.41
2019-05-01T03:28:13.034Z,2.24
2019-05-01T03:30:38.995Z,2.23
2019-05-01T03:33:05.039Z,2.19
2019-05-01T03:35:31.494Z,2.45
2019-05-01T03:37:57.560Z,2.44
2019-05-01T03:40:23.483Z,2.48
2019-05-01T03:42:49.506Z,2.64
2019-05-01T03:45:15.446Z,2.41
2019-05-01T03:47:41.496Z,1.96
2019-05-01T03:50:07.423Z,1.90
2019-05-01T03:52:33.467Z,2.13
2019-05-01T03:54:59.602Z,2.50
2019-05-01T03:57:25.519Z,1.97
2019-05-01T03:59:51.416Z,1.62
2019-05-01T04:02:33.483Z,1.86
2019-05-01T04:04:58.758Z,2.27
2019-05-01T04:07:24.724Z,2.05
2019-05-01T04:09:50.736Z,2.27
2019-05-01T04:12:16.698Z,2.45
2019-05-01T04:14:42.923Z,2.32
2019-05-01T04:17:13.424Z,2.51
2019-05-01T04:19:39.358Z,2.59
2019-05-01T04:22:10.079Z,2.12
2019-05-01T04:24:35.933Z,2.41
2019-05-01T04:27:03.557Z,2.03
2019-05-01T04:29:34.057Z,1.96
2019-05-01T04:32:02.007Z,2.41
2019-05-01T04:34:41.639Z,2.54
2019-05-01T04:37:09.677Z,2.68
2019-05-01T04:39:35.630Z,2.18
2019-05-01T04:42:01.575Z,2.21
2019-05-01T04:44:27.527Z,2.42
2019-05-01T04:46:53.813Z,2.65
2019-05-01T04:49:19.920Z,2.75
2019-05-01T04:51:45.959Z,2.87
2019-05-01T04:54:12.305Z,2.71
2019-05-01T04:56:38.247Z,2.89
2019-05-01T04:59:04.095Z,2.77
2019-05-01T05:01:34.570Z,2.68
2019-05-01T05:04:00.648Z,2.98
2019-05-01T05:06:26.799Z,3.14
2019-05-01T05:08:52.747Z,3.15
2019-05-01T05:11:23.306Z,3.28
2019-05-01T05:14:07.584Z,3.17
2019-05-01T05:16:44.106Z,3.39
2019-05-01T05:19:10.240Z,3.42
2019-05-01T05:21:36.286Z,3.38
2019-05-01T05:24:02.448Z,3.28
2019-05-01T05:26:28.674Z,3.45
2019-05-01T05:28:55.332Z,3.51
2019-05-01T05:31:23.161Z,3.49
2019-05-01T05:33:50.908Z,3.76
2019-05-01T05:36:18.330Z,3.42
2019-05-01T05:38:46.364Z,3.63
2019-05-01T05:41:12.909Z,4.03
2019-05-01T05:43:39.468Z,4.25
2019-05-01T05:46:05.605Z,4.43
2019-05-01T05:48:31.628Z,4.65
2019-05-01T05:51:00.301Z,4.77
2019-05-01T05:53:28.849Z,4.85
2019-05-01T05:55:58.599Z,4.75
2019-05-01T05:58:44.742Z,4.87
2019-05-01T06:01:22.406Z,4.88
2019-05-01T06:04:03.546Z,5.02
2019-05-01T06:06:32.511Z,5.16
2019-05-01T06:08:59.169Z,5.41
2019-05-01T06:11:29.791Z,5.56
2019-05-01T06:14:08.917Z,5.65
2019-05-01T06:16:52.162Z,5.76
2019-05-01T06:19:19.178Z,6.07
2019-05-01T06:22:09.522Z,6.39
2019-05-01T06:24:35.856Z,6.64
2019-05-01T06:27:01.978Z,7.04
2019-05-01T06:29:30.999Z,7.23
2019-05-01T06:31:58.835Z,7.21
2019-05-01T06:34:28.321Z,7.21
2019-05-01T06:36:51.773Z,7.23
2019-05-01T06:39:17.619Z,7.32
2019-05-01T06:41:43.756Z,7.34
2019-05-01T06:44:12.302Z,7.54
2019-05-01T06:46:51.905Z,7.52
2019-05-01T06:49:24.302Z,7.52
2019-05-01T06:51:53.077Z,7.38
2019-05-01T06:54:19.909Z,7.68
2019-05-01T06:56:46.212Z,7.85
2019-05-01T06:59:13.165Z,7.99
2019-05-01T07:01:39.119Z,7.99
2019-05-01T07:04:05.289Z,7.96
2019-05-01T07:06:32.882Z,8.10
2019-05-01T07:08:59.283Z,8.04
2019-05-01T07:11:25.394Z,8.21
2019-05-01T07:13:51.281Z,8.27
2019-05-01T07:16:17.407Z,8.28
2019-05-01T07:18:43.471Z,8.15
2019-05-01T07:21:09.292Z,8.05
2019-05-01T07:23:35.283Z,8.23
2019-05-01T07:26:01.228Z,8.44
2019-05-01T07:28:34.074Z,8.28
2019-05-01T07:30:58.921Z,8.55
2019-05-01T07:33:25.079Z,8.55
2019-05-01T07:35:53.836Z,8.83
2019-05-01T07:38:19.075Z,8.85
2019-05-01T07:40:45.448Z,9.49
2019-05-01T07:43:25.870Z,9.49
2019-05-01T07:45:56.727Z,9.78
2019-05-01T07:48:31.333Z,9.78
2019-05-01T07:50:57.475Z,9.99
2019-05-01T07:53:23.872Z,9.95
2019-05-01T07:55:52.726Z,9.95
2019-05-01T07:58:18.725Z,10.08
2019-05-01T08:01:07.532Z,10.08
2019-05-01T08:03:33.612Z,10.18
2019-05-01T08:05:59.494Z,10.05
2019-05-01T08:08:25.336Z,10.05
2019-05-01T08:10:51.522Z,10.24
2019-05-01T08:13:17.450Z,10.25
2019-05-01T08:15:43.523Z,10.26
2019-05-01T08:18:11.477Z,10.47
2019-05-01T08:20:51.576Z,10.47
2019-05-01T08:23:17.501Z,10.64
2019-05-01T08:25:43.372Z,10.86
2019-05-01T08:28:14.076Z,10.92
2019-05-01T08:30:58.591Z,10.89
2019-05-01T08:33:32.096Z,10.99
2019-05-01T08:35:58.143Z,10.99
2019-05-01T08:38:24.080Z,10.87
2019-05-01T08:40:50.670Z,10.87
2019-05-01T08:43:19.424Z,10.88
2019-05-01T08:45:56.439Z,11.06
2019-05-01T08:48:30.864Z,11.06
2019-05-01T08:50:59.135Z,11.33
2019-05-01T08:53:25.984Z,11.40
2019-05-01T08:55:51.926Z,11.51
2019-05-01T08:58:17.768Z,11.67
2019-05-01T09:00:43.719Z,11.79
2019-05-01T09:03:13.713Z,12.22
2019-05-01T09:05:37.546Z,12.79
2019-05-01T09:08:03.535Z,12.97
2019-05-01T09:10:29.567Z,13.09
2019-05-01T09:12:55.526Z,13.17
2019-05-01T09:15:21.381Z,13.22
2019-05-01T09:17:47.423Z,13.03
2019-05-01T09:20:16.384Z,13.22
2019-05-01T09:22:41.313Z,13.44
2019-05-01T09:25:09.449Z,13.59
2019-05-01T09:27:43.242Z,13.69
2019-05-01T09:30:21.769Z,14.28
2019-05-01T09:32:54.080Z,14.62
2019-05-01T09:35:16.424Z,14.38
2019-05-01T09:37:43.085Z,14.42
2019-05-01T09:40:10.309Z,14.25
2019-05-01T09:42:36.541Z,14.45
2019-05-01T09:45:04.293Z,14.22
2019-05-01T09:47:30.241Z,14.28
2019-05-01T09:49:56.116Z,14.27
2019-05-01T09:52:29.579Z,14.16
2019-05-01T09:54:57.444Z,14.33
2019-05-01T09:57:23.376Z,14.38
2019-05-01T09:59:49.429Z,14.25
2019-05-01T10:02:15.297Z,14.46
2019-05-01T10:04:41.266Z,14.72
2019-05-01T10:07:08.286Z,15.15
2019-05-01T10:09:34.227Z,14.73
2019-05-01T10:12:00.184Z,14.85
2019-05-01T10:14:26.010Z,15.04
2019-05-01T10:16:51.855Z,15.36
2019-05-01T10:19:17.784Z,15.26
2019-05-01T10:21:43.821Z,15.06
2019-05-01T10:24:09.763Z,14.99
2019-05-01T10:26:37.516Z,15.06
2019-05-01T10:29:05.456Z,15.25
2019-05-01T10:31:49.735Z,15.18
2019-05-01T10:34:29.398Z,15.30
2019-05-01T10:36:55.893Z,15.12
2019-05-01T10:39:21.908Z,15.47
2019-05-01T10:41:47.987Z,15.43
2019-05-01T10:44:13.827Z,15.87
2019-05-01T10:46:39.889Z,16.01
2019-05-01T10:49:05.833Z,15.53
2019-05-01T10:51:31.710Z,15.34
2019-05-01T10:53:57.636Z,15.87
2019-05-01T10:56:23.581Z,15.66
2019-05-01T10:58:49.436Z,15.56
2019-05-01T11:01:23.262Z,16.21
2019-05-01T11:03:49.212Z,16.46
2019-05-01T11:06:15.125Z,16.34
2019-05-01T11:08:41.058Z,16.39
2019-05-01T11:11:06.994Z,16.31
2019-05-01T11:13:32.952Z,16.56
2019-05-01T11:15:58.801Z,17.01
2019-05-01T11:18:24.762Z,17.06
2019-05-01T11:20:50.697Z,17.31
2019-05-01T11:23:16.638Z,16.60
2019-05-01T11:25:44.629Z,16.73
2019-05-01T11:28:10.544Z,16.08
2019-05-01T11:30:36.720Z,16.08
2019-05-01T11:33:04.549Z,16.01
2019-05-01T11:35:48.918Z,16.16
2019-05-01T11:38:19.422Z,16.19
2019-05-01T11:40:51.475Z,16.30
2019-05-01T11:43:17.326Z,15.97
2019-05-01T11:45:43.268Z,16.07
2019-05-01T11:48:09.211Z,16.69
2019-05-01T11:50:35.360Z,16.31
2019-05-01T11:53:01.395Z,15.71
2019-05-01T11:55:27.433Z,16.07
2019-05-01T11:57:53.384Z,16.09
2019-05-01T12:00:20.252Z,16.48
2019-05-01T12:02:46.386Z,16.01
2019-05-01T12:05:12.562Z,15.83
2019-05-01T12:07:38.487Z,16.03
2019-05-01T12:10:05.561Z,16.13
2019-05-01T12:12:33.288Z,15.84
2019-05-01T12:14:59.327Z,15.77
2019-05-01T12:17:27.274Z,16.02
2019-05-01T12:19:53.110Z,15.92
2019-05-01T12:22:18.958Z,16.10
2019-05-01T12:24:44.907Z,16.06
2019-05-01T12:27:10.931Z,15.94
2019-05-01T12:29:36.874Z,16.16
2019-05-01T12:32:02.839Z,16.15
2019-05-01T12:34:28.783Z,16.00
2019-05-01T12:37:12.895Z,16.32
2019-05-01T12:39:38.728Z,16.39
2019-05-01T12:42:04.802Z,16.63
2019-05-01T12:44:30.640Z,16.73
2019-05-01T12:46:58.503Z,16.63
2019-05-01T12:49:24.547Z,17.22
2019-05-01T12:51:52.403Z,17.83
2019-05-01T12:54:29.138Z,18.63
2019-05-01T12:56:58.914Z,18.98
2019-05-01T12:59:24.844Z,19.49
2019-05-01T13:01:50.718Z,19.39
2019-05-01T13:04:16.808Z,18.90
2019-05-01T13:06:49.084Z,18.90
2019-05-01T13:09:10.820Z,18.16
2019-05-01T13:11:36.672Z,18.01
2019-05-01T13:14:02.504Z,18.00
2019-05-01T13:16:28.382Z,17.64
2019-05-01T13:18:54.275Z,17.36
2019-05-01T13:21:20.132Z,17.17
2019-05-01T13:23:45.987Z,17.28
2019-05-01T13:26:13.848Z,16.99
2019-05-01T13:28:56.536Z,17.34
2019-05-01T13:31:30.107Z,18.05
2019-05-01T13:33:56.064Z,17.79
2019-05-01T13:36:22.001Z,17.51
2019-05-01T13:38:47.939Z,17.99
2019-05-01T13:41:13.798Z,17.40
2019-05-01T13:43:39.770Z,17.47
2019-05-01T13:46:05.618Z,17.35
2019-05-01T13:48:31.487Z,17.59
2019-05-01T13:50:57.450Z,17.04
2019-05-01T13:53:23.392Z,16.95
2019-05-01T13:55:49.340Z,16.98
2019-05-01T13:58:15.179Z,16.86
2019-05-01T14:00:41.184Z,17.13
2019-05-01T14:03:07.135Z,17.11
2019-05-01T14:05:33.215Z,16.96
2019-05-01T14:07:59.041Z,17.13
2019-05-01T14:10:25.122Z,17.15
2019-05-01T14:12:51.138Z,17.02
2019-05-01T14:15:17.105Z,17.29
2019-05-01T14:17:43.038Z,16.83
2019-05-01T14:20:12.904Z,16.83
2019-05-01T14:22:45.371Z,16.98
2019-05-01T14:25:13.247Z,17.21
2019-05-01T14:27:39.236Z,17.11
2019-05-01T14:30:09.414Z,16.98
2019-05-01T14:32:35.405Z,17.33
2019-05-01T14:35:01.763Z,17.36
2019-05-01T14:37:29.686Z,17.31
2019-05-01T14:39:55.623Z,17.25
2019-05-01T14:42:21.604Z,17.11
2019-05-01T14:44:50.803Z,17.17
2019-05-01T14:47:16.772Z,17.27
2019-05-01T14:49:42.621Z,17.12
2019-05-01T14:52:08.583Z,17.27
2019-05-01T14:54:34.508Z,17.54
2019-05-01T14:57:01.895Z,17.59
2019-05-01T14:59:27.983Z,17.67
2019-05-01T15:01:53.964Z,17.92
2019-05-01T15:04:19.950Z,17.75
2019-05-01T15:06:45.996Z,18.00
2019-05-01T15:09:11.946Z,18.17
2019-05-01T15:11:38.831Z,18.73
2019-05-01T15:14:12.379Z,19.27
2019-05-01T15:16:40.160Z,18.19
2019-05-01T15:19:07.919Z,19.55
2019-05-01T15:21:33.799Z,18.98
2019-05-01T15:23:59.783Z,18.97
2019-05-01T15:26:25.682Z,18.50
2019-05-01T15:28:51.528Z,18.40
2019-05-01T15:31:17.391Z,19.44
2019-05-01T15:33:43.247Z,19.66
2019-05-01T15:36:09.117Z,19.88
2019-05-01T15:38:34.967Z,19.53
2019-05-01T15:41:08.469Z,19.34
2019-05-01T15:43:36.310Z,18.44
2019-05-01T15:46:02.439Z,17.79
2019-05-01T15:48:28.308Z,17.62
2019-05-01T15:50:54.369Z,17.23
2019-05-01T15:53:20.342Z,17.18
2019-05-01T15:55:46.631Z,17.26
2019-05-01T15:58:12.798Z,17.46
2019-05-01T16:00:38.780Z,17.46
2019-05-01T16:03:04.646Z,17.51
2019-05-01T16:05:30.718Z,17.10
2019-05-01T16:08:08.991Z,17.37
2019-05-01T16:10:26.453Z,17.42
2019-05-01T16:12:56.135Z,17.59
2019-05-01T16:15:26.750Z,17.65
2019-05-01T16:17:52.708Z,17.35
2019-05-01T16:20:18.685Z,17.51
2019-05-01T16:22:44.549Z,17.78
2019-05-01T16:25:11.132Z,17.56
2019-05-01T16:27:36.984Z,17.49
2019-05-01T16:30:06.265Z,17.47
2019-05-01T16:32:32.338Z,17.42
2019-05-01T16:34:58.209Z,17.23
2019-05-01T16:37:24.133Z,17.30
2019-05-01T16:40:00.594Z,17.18
2019-05-01T16:42:28.567Z,17.00
2019-05-01T16:44:54.413Z,16.92
2019-05-01T16:47:20.295Z,16.91
2019-05-01T16:49:46.264Z,17.00
2019-05-01T16:52:12.442Z,17.09
2019-05-01T16:54:38.408Z,17.09
2019-05-01T16:57:04.681Z,16.99
2019-05-01T16:59:30.636Z,17.43
2019-05-01T17:01:58.568Z,17.37
2019-05-01T17:04:29.322Z,17.06
2019-05-01T17:06:59.803Z,16.92
2019-05-01T17:09:36.409Z,16.73
2019-05-01T17:12:02.522Z,16.82
2019-05-01T17:14:28.686Z,16.73
2019-05-01T17:16:54.853Z,16.68
2019-05-01T17:19:20.702Z,16.90
2019-05-01T17:21:46.674Z,16.82
2019-05-01T17:24:12.615Z,16.88
2019-05-01T17:26:38.489Z,16.70
2019-05-01T17:29:04.462Z,16.72
2019-05-01T17:31:30.526Z,16.63
2019-05-01T17:33:56.824Z,16.76
2019-05-01T17:36:22.988Z,16.81
2019-05-01T17:38:50.025Z,16.87
2019-05-01T17:41:16.227Z,16.99
2019-05-01T17:43:44.731Z,16.88
2019-05-01T17:46:10.654Z,16.89
2019-05-01T17:48:37.903Z,16.97
2019-05-01T17:51:03.784Z,16.95
2019-05-01T17:53:29.661Z,16.98
2019-05-01T17:55:55.728Z,16.84
2019-05-01T17:58:21.613Z,16.79
2019-05-01T18:01:07.337Z,16.50
2019-05-01T18:03:41.948Z,16.42
2019-05-01T18:06:09.846Z,16.45
2019-05-01T18:08:35.905Z,16.37
2019-05-01T18:11:01.756Z,16.23
2019-05-01T18:13:27.618Z,16.44
2019-05-01T18:15:53.559Z,16.45
2019-05-01T18:18:19.523Z,16.36
2019-05-01T18:20:45.611Z,16.35
2019-05-01T18:23:13.596Z,16.23
2019-05-01T18:25:57.713Z,16.17
2019-05-01T18:28:37.312Z,16.10
2019-05-01T18:31:05.299Z,15.86
2019-05-01T18:33:31.136Z,15.73
2019-05-01T18:35:56.986Z,15.79
2019-05-01T18:38:24.833Z,15.87
2019-05-01T18:40:58.356Z,15.84
2019-05-01T18:43:26.956Z,15.86
2019-05-01T18:45:53.344Z,15.78
2019-05-01T18:48:19.714Z,15.79
2019-05-01T18:50:49.468Z,15.63
2019-05-01T18:53:14.962Z,15.54
2019-05-01T18:55:40.957Z,15.56
2019-05-01T18:58:07.220Z,15.45
2019-05-01T19:00:33.243Z,15.45
2019-05-01T19:02:59.632Z,15.55
2019-05-01T19:05:27.022Z,15.35
2019-05-01T19:07:53.059Z,15.20
2019-05-01T19:10:19.366Z,15.20
2019-05-01T19:12:45.505Z,15.20
2019-05-01T19:15:11.529Z,15.24
2019-05-01T19:17:37.616Z,15.11
2019-05-01T19:20:04.945Z,15.18
2019-05-01T19:22:30.841Z,15.12
2019-05-01T19:24:57.231Z,15.05
2019-05-01T19:27:24.399Z,14.74
2019-05-01T19:29:50.983Z,14.84
2019-05-01T19:32:17.895Z,14.76
2019-05-01T19:34:44.001Z,14.76
2019-05-01T19:37:09.996Z,14.66
2019-05-01T19:39:43.553Z,14.14
2019-05-01T19:42:03.993Z,13.76
2019-05-01T19:44:30.061Z,13.26
2019-05-01T19:46:56.024Z,13.38
2019-05-01T19:49:24.614Z,13.40
2019-05-01T19:51:49.870Z,13.35
2019-05-01T19:54:16.058Z,13.46
2019-05-01T19:56:42.089Z,13.57
2019-05-01T19:59:08.060Z,13.58
2019-05-01T20:01:38.541Z,13.33
2019-05-01T20:04:01.688Z,13.28
2019-05-01T20:06:27.703Z,13.37
2019-05-01T20:08:53.620Z,13.43
2019-05-01T20:11:19.692Z,12.85
2019-05-01T20:13:45.648Z,12.64
2019-05-01T20:16:12.105Z,12.70
2019-05-01T20:18:38.104Z,12.58
2019-05-01T20:21:04.132Z,12.32
2019-05-01T20:23:31.435Z,12.02
2019-05-01T20:25:57.749Z,11.96
2019-05-01T20:28:23.727Z,12.22
2019-05-01T20:30:49.748Z,12.52
2019-05-01T20:33:15.727Z,12.39
2019-05-01T20:35:41.583Z,12.30
2019-05-01T20:38:07.632Z,12.28
2019-05-01T20:40:33.581Z,12.08
2019-05-01T20:43:01.128Z,11.89
2019-05-01T20:45:27.628Z,11.90
2019-05-01T20:47:54.339Z,12.09
2019-05-01T20:50:20.408Z,12.03
2019-05-01T20:52:46.240Z,12.03
2019-05-01T20:55:12.284Z,11.88
2019-05-01T20:57:48.366Z,11.74
2019-05-01T21:00:16.522Z,11.82
2019-05-01T21:02:45.389Z,11.84
2019-05-01T21:05:32.053Z,11.57
2019-05-01T21:08:18.097Z,10.60
2019-05-01T21:10:57.986Z,10.30
2019-05-01T21:13:25.087Z,10.23
2019-05-01T21:15:51.109Z,10.47
2019-05-01T21:18:20.929Z,10.55
2019-05-01T21:20:44.964Z,10.74
2019-05-01T21:23:11.777Z,10.51
2019-05-01T21:25:37.753Z,10.64
2019-05-01T21:28:04.205Z,10.47
2019-05-01T21:30:30.041Z,10.35
2019-05-01T21:32:58.562Z,10.41
2019-05-01T21:35:24.031Z,10.58
2019-05-01T21:37:50.002Z,10.79
2019-05-01T21:40:15.950Z,10.73
2019-05-01T21:42:42.887Z,10.77
2019-05-01T21:45:08.938Z,10.58
2019-05-01T21:47:34.894Z,10.58
2019-05-01T21:50:00.716Z,10.50
2019-05-01T21:52:27.081Z,10.49
2019-05-01T21:54:55.197Z,9.91
2019-05-01T21:57:21.051Z,9.91
2019-05-01T21:59:48.159Z,9.59
2019-05-01T22:02:15.026Z,9.92
2019-05-01T22:04:40.955Z,9.92
2019-05-01T22:07:07.081Z,10.21
2019-05-01T22:09:33.150Z,9.92
2019-05-01T22:11:59.091Z,9.92
2019-05-01T22:14:43.546Z,9.62
2019-05-01T22:17:32.189Z,9.76
2019-05-01T22:19:55.990Z,9.76
2019-05-01T22:22:23.684Z,9.57
2019-05-01T22:25:07.904Z,9.71
2019-05-01T22:27:38.416Z,9.55
2019-05-01T22:30:10.796Z,9.70
2019-05-01T22:32:39.541Z,9.70
2019-05-01T22:35:09.790Z,9.15
2019-05-01T22:37:35.758Z,8.84
2019-05-01T22:40:04.811Z,8.73
2019-05-01T22:42:30.879Z,8.95
2019-05-01T22:44:56.717Z,9.13
2019-05-01T22:47:22.658Z,9.27
2019-05-01T22:49:48.687Z,9.46
2019-05-01T22:52:14.653Z,9.03
2019-05-01T22:54:44.797Z,9.03
2019-05-01T22:57:08.427Z,9.22
2019-05-01T22:59:34.250Z,9.22
2019-05-01T23:02:11.175Z,9.28
2019-05-01T23:04:37.014Z,9.15
2019-05-01T23:07:02.949Z,9.15
2019-05-01T23:09:30.418Z,9.26
2019-05-01T23:11:56.349Z,9.19
2019-05-01T23:14:23.111Z,9.14
2019-05-01T23:16:50.965Z,9.28
2019-05-01T23:19:16.923Z,8.91
2019-05-01T23:21:45.943Z,8.35
2019-05-01T23:24:10.603Z,8.30
2019-05-01T23:26:36.645Z,8.51
2019-05-01T23:29:02.592Z,8.73
2019-05-01T23:31:28.523Z,8.88
2019-05-01T23:33:54.377Z,8.84
2019-05-01T23:36:23.768Z,8.88
2019-05-01T23:38:48.185Z,8.55
2019-05-01T23:41:14.204Z,8.55
2019-05-01T23:43:40.163Z,8.41
2019-05-01T23:46:06.108Z,8.01
2019-05-01T23:48:31.936Z,8.43
2019-05-01T23:50:58.273Z,8.43
2019-05-01T23:53:24.329Z,8.65
2019-05-01T23:55:54.710Z,8.63
2019-05-01T23:58:18.023Z,8.64
